Hartline, Washington
Current Conditions -  °F | °C
As of 1:53 PM on Monday 24 Nov 2014 (Local Time) from KEPH Reporting Station
Broken Clouds Broken Clouds  
Wind Chill: 37°   Ceiling: 10000
Heat Index: 40°   Visibility: 10mi
Dew Point: 33°   Wind: 5mph
Humidity: 77%   Direction: 10°N
Pressure: 30.23"   Gusts: NA
Location:  47.69°N, 119.11°W
Report Text: KEPH 242153Z AUTO 01004KT 10SM BKN100 04/01 A3023 RMK AO2 SLP245 T00440006
Loading
Personal Weather Stations






























Interactive Weather Map New forecast layout! Learn more

10-Day Weather Forecast

Advertisements
Track Severe Weather on mobile